sensor_id;sensor_type;location;lat;lon;timestamp;pressure;altitude;pressure_sealevel;temperature;humidity
6974;BME280;3527;52.376;8.990;2023-04-22T00:00:03;69532.09;;;-145.07;100.00
6974;BME280;3527;52.376;8.990;2023-04-22T00:02:30;69532.09;;;-145.07;100.00
6974;BME280;3527;52.376;8.990;2023-04-22T00:04:58;69532.09;;;-145.07;100.00
6974;BME280;3527;52.376;8.990;2023-04-22T00:07:25;69532.09;;;-145.07;100.00
6974;BME280;3527;52.376;8.990;2023-04-22T00:09:51;69532.09;;;-145.07;100.00
6974;BME280;3527;52.376;8.990;2023-04-22T00:12:18;69532.09;;;-145.07;100.00
6974;BME280;3527;52.376;8.990;2023-04-22T00:14:45;69532.09;;;-145.07;100.00
6974;BME280;3527;52.376;8.990;2023-04-22T00:17:12;69532.09;;;-145.07;100.00
6974;BME280;3527;52.376;8.990;2023-04-22T00:19:38;69532.09;;;-145.07;100.00
6974;BME280;3527;52.376;8.990;2023-04-22T00:22:06;69532.09;;;-145.07;100.00
6974;BME280;3527;52.376;8.990;2023-04-22T00:24:33;69532.09;;;-145.07;100.00
6974;BME280;3527;52.376;8.990;2023-04-22T00:26:59;69532.09;;;-145.07;100.00
6974;BME280;3527;52.376;8.990;2023-04-22T00:29:26;69532.09;;;-145.07;100.00
6974;BME280;3527;52.376;8.990;2023-04-22T00:31:53;69532.09;;;-145.07;100.00
6974;BME280;3527;52.376;8.990;2023-04-22T00:34:20;69532.09;;;-145.07;100.00
6974;BME280;3527;52.376;8.990;2023-04-22T00:36:47;69532.09;;;-145.07;100.00
6974;BME280;3527;52.376;8.990;2023-04-22T00:39:13;69532.09;;;-145.07;100.00
6974;BME280;3527;52.376;8.990;2023-04-22T00:41:40;69532.09;;;-145.07;100.00
6974;BME280;3527;52.376;8.990;2023-04-22T00:44:09;69532.09;;;-145.07;100.00
6974;BME280;3527;52.376;8.990;2023-04-22T00:46:37;69532.09;;;-145.07;100.00
6974;BME280;3527;52.376;8.990;2023-04-22T00:49:05;69532.09;;;-145.07;100.00
6974;BME280;3527;52.376;8.990;2023-04-22T00:51:32;69532.09;;;-145.07;100.00
6974;BME280;3527;52.376;8.990;2023-04-22T00:53:59;69532.09;;;-145.07;100.00
6974;BME280;3527;52.376;8.990;2023-04-22T00:56:31;69532.09;;;-145.07;100.00
6974;BME280;3527;52.376;8.990;2023-04-22T00:58:59;69532.09;;;-145.07;100.00
6974;BME280;3527;52.376;8.990;2023-04-22T01:01:26;69532.09;;;-145.07;100.00
6974;BME280;3527;52.376;8.990;2023-04-22T01:03:53;69532.09;;;-145.07;100.00
6974;BME280;3527;52.376;8.990;2023-04-22T01:06:23;69532.09;;;-145.07;100.00
6974;BME280;3527;52.376;8.990;2023-04-22T01:08:50;69532.09;;;-145.07;100.00
6974;BME280;3527;52.376;8.990;2023-04-22T01:11:16;69532.09;;;-145.07;100.00
6974;BME280;3527;52.376;8.990;2023-04-22T01:13:44;69532.09;;;-145.07;100.00
6974;BME280;3527;52.376;8.990;2023-04-22T01:16:10;69532.09;;;-145.07;100.00
6974;BME280;3527;52.376;8.990;2023-04-22T01:18:38;69532.09;;;-145.07;100.00
6974;BME280;3527;52.376;8.990;2023-04-22T01:21:05;69532.09;;;-145.07;100.00
6974;BME280;3527;52.376;8.990;2023-04-22T01:23:32;69532.09;;;-145.07;100.00
6974;BME280;3527;52.376;8.990;2023-04-22T01:25:59;69532.09;;;-145.07;100.00
6974;BME280;3527;52.376;8.990;2023-04-22T01:28:27;69532.09;;;-145.07;100.00
6974;BME280;3527;52.376;8.990;2023-04-22T01:30:54;69532.09;;;-145.07;100.00
6974;BME280;3527;52.376;8.990;2023-04-22T01:33:21;69532.09;;;-145.07;100.00
6974;BME280;3527;52.376;8.990;2023-04-22T01:35:48;69532.09;;;-145.07;100.00
6974;BME280;3527;52.376;8.990;2023-04-22T01:38:15;69532.09;;;-145.07;100.00
6974;BME280;3527;52.376;8.990;2023-04-22T01:40:42;69532.09;;;-145.07;100.00
6974;BME280;3527;52.376;8.990;2023-04-22T01:43:09;69532.09;;;-145.07;100.00
6974;BME280;3527;52.376;8.990;2023-04-22T01:45:35;69532.09;;;-145.07;100.00
6974;BME280;3527;52.376;8.990;2023-04-22T01:48:03;69532.09;;;-145.07;100.00
6974;BME280;3527;52.376;8.990;2023-04-22T01:50:30;69532.09;;;-145.07;100.00
6974;BME280;3527;52.376;8.990;2023-04-22T01:52:57;69532.09;;;-145.07;100.00
6974;BME280;3527;52.376;8.990;2023-04-22T01:55:24;69532.09;;;-145.07;100.00
6974;BME280;3527;52.376;8.990;2023-04-22T01:57:51;69532.09;;;-145.07;100.00
6974;BME280;3527;52.376;8.990;2023-04-22T02:00:18;69532.09;;;-145.07;100.00
6974;BME280;3527;52.376;8.990;2023-04-22T02:02:44;69532.09;;;-145.07;100.00
6974;BME280;3527;52.376;8.990;2023-04-22T02:05:11;69532.09;;;-145.07;100.00
6974;BME280;3527;52.376;8.990;2023-04-22T02:07:38;69532.09;;;-145.07;100.00
6974;BME280;3527;52.376;8.990;2023-04-22T02:10:05;69532.09;;;-145.07;100.00
6974;BME280;3527;52.376;8.990;2023-04-22T02:12:32;69532.09;;;-145.07;100.00
6974;BME280;3527;52.376;8.990;2023-04-22T02:14:59;69532.09;;;-145.07;100.00
6974;BME280;3527;52.376;8.990;2023-04-22T02:17:26;69532.09;;;-145.07;100.00
6974;BME280;3527;52.376;8.990;2023-04-22T02:19:53;69532.09;;;-145.07;100.00
6974;BME280;3527;52.376;8.990;2023-04-22T02:22:22;69532.09;;;-145.07;100.00
6974;BME280;3527;52.376;8.990;2023-04-22T02:24:49;69532.09;;;-145.07;100.00
6974;BME280;3527;52.376;8.990;2023-04-22T02:27:16;69532.09;;;-145.07;100.00
6974;BME280;3527;52.376;8.990;2023-04-22T02:29:43;69532.09;;;-145.07;100.00
6974;BME280;3527;52.376;8.990;2023-04-22T02:32:09;69532.09;;;-145.07;100.00
6974;BME280;3527;52.376;8.990;2023-04-22T02:34:36;69532.09;;;-145.07;100.00
6974;BME280;3527;52.376;8.990;2023-04-22T02:37:03;69532.09;;;-145.07;100.00
6974;BME280;3527;52.376;8.990;2023-04-22T02:39:31;69532.09;;;-145.07;100.00
6974;BME280;3527;52.376;8.990;2023-04-22T02:41:57;69532.09;;;-145.07;100.00
6974;BME280;3527;52.376;8.990;2023-04-22T02:44:24;69532.09;;;-145.07;100.00
6974;BME280;3527;52.376;8.990;2023-04-22T02:46:51;69532.09;;;-145.07;100.00
6974;BME280;3527;52.376;8.990;2023-04-22T02:49:18;69532.09;;;-145.07;100.00
6974;BME280;3527;52.376;8.990;2023-04-22T02:51:44;69532.09;;;-145.07;100.00
6974;BME280;3527;52.376;8.990;2023-04-22T02:54:11;69532.09;;;-145.07;100.00
6974;BME280;3527;52.376;8.990;2023-04-22T02:56:38;69532.09;;;-145.07;100.00
6974;BME280;3527;52.376;8.990;2023-04-22T02:59:05;69532.09;;;-145.07;100.00
6974;BME280;3527;52.376;8.990;2023-04-22T03:01:31;69532.09;;;-145.07;100.00
6974;BME280;3527;52.376;8.990;2023-04-22T03:03:58;69532.09;;;-145.07;100.00
6974;BME280;3527;52.376;8.990;2023-04-22T03:06:26;69532.09;;;-145.07;100.00
6974;BME280;3527;52.376;8.990;2023-04-22T03:08:52;69532.09;;;-145.07;100.00
6974;BME280;3527;52.376;8.990;2023-04-22T03:11:19;69532.09;;;-145.07;100.00
6974;BME280;3527;52.376;8.990;2023-04-22T03:13:46;69532.09;;;-145.07;100.00
6974;BME280;3527;52.376;8.990;2023-04-22T03:16:15;69532.09;;;-145.07;100.00
6974;BME280;3527;52.376;8.990;2023-04-22T03:18:42;69532.09;;;-145.07;100.00
6974;BME280;3527;52.376;8.990;2023-04-22T03:21:09;69532.09;;;-145.07;100.00
6974;BME280;3527;52.376;8.990;2023-04-22T03:23:36;69532.09;;;-145.07;100.00
6974;BME280;3527;52.376;8.990;2023-04-22T03:26:03;69532.09;;;-145.07;100.00
6974;BME280;3527;52.376;8.990;2023-04-22T03:28:29;69532.09;;;-145.07;100.00
6974;BME280;3527;52.376;8.990;2023-04-22T03:30:56;69532.09;;;-145.07;100.00
6974;BME280;3527;52.376;8.990;2023-04-22T03:33:23;69532.09;;;-145.07;100.00
6974;BME280;3527;52.376;8.990;2023-04-22T03:35:49;69532.09;;;-145.07;100.00
6974;BME280;3527;52.376;8.990;2023-04-22T03:38:16;69532.09;;;-145.07;100.00
6974;BME280;3527;52.376;8.990;2023-04-22T03:40:43;69532.09;;;-145.07;100.00
6974;BME280;3527;52.376;8.990;2023-04-22T03:43:10;69532.09;;;-145.07;100.00
6974;BME280;3527;52.376;8.990;2023-04-22T03:45:36;69532.09;;;-145.07;100.00
6974;BME280;3527;52.376;8.990;2023-04-22T03:48:03;69532.09;;;-145.07;100.00
6974;BME280;3527;52.376;8.990;2023-04-22T03:50:30;69532.09;;;-145.07;100.00
6974;BME280;3527;52.376;8.990;2023-04-22T03:52:57;69532.09;;;-145.07;100.00
6974;BME280;3527;52.376;8.990;2023-04-22T03:55:24;69532.09;;;-145.07;100.00
6974;BME280;3527;52.376;8.990;2023-04-22T03:57:51;69532.09;;;-145.07;100.00
6974;BME280;3527;52.376;8.990;2023-04-22T04:00:17;69532.09;;;-145.07;100.00
6974;BME280;3527;52.376;8.990;2023-04-22T04:02:44;69532.09;;;-145.07;100.00
6974;BME280;3527;52.376;8.990;2023-04-22T04:05:11;69532.09;;;-145.07;100.00
6974;BME280;3527;52.376;8.990;2023-04-22T04:07:38;69532.09;;;-145.07;100.00
6974;BME280;3527;52.376;8.990;2023-04-22T04:10:05;69532.09;;;-145.07;100.00
6974;BME280;3527;52.376;8.990;2023-04-22T04:12:32;69532.09;;;-145.07;100.00
6974;BME280;3527;52.376;8.990;2023-04-22T04:15:12;69532.09;;;-145.07;100.00
6974;BME280;3527;52.376;8.990;2023-04-22T04:18:00;69532.09;;;-145.07;100.00
6974;BME280;3527;52.376;8.990;2023-04-22T04:20:48;69532.09;;;-145.07;100.00
6974;BME280;3527;52.376;8.990;2023-04-22T04:23:34;69532.09;;;-145.07;100.00
6974;BME280;3527;52.376;8.990;2023-04-22T04:26:03;69532.09;;;-145.07;100.00
6974;BME280;3527;52.376;8.990;2023-04-22T04:28:51;69532.09;;;-145.07;100.00
6974;BME280;3527;52.376;8.990;2023-04-22T04:31:31;69532.09;;;-145.07;100.00
6974;BME280;3527;52.376;8.990;2023-04-22T04:34:02;69532.09;;;-145.07;100.00
6974;BME280;3527;52.376;8.990;2023-04-22T04:36:49;69532.09;;;-145.07;100.00
6974;BME280;3527;52.376;8.990;2023-04-22T04:39:27;69532.09;;;-145.07;100.00
6974;BME280;3527;52.376;8.990;2023-04-22T04:42:13;69532.09;;;-145.07;100.00
6974;BME280;3527;52.376;8.990;2023-04-22T04:44:41;69532.09;;;-145.07;100.00
6974;BME280;3527;52.376;8.990;2023-04-22T04:47:11;69532.09;;;-145.07;100.00
6974;BME280;3527;52.376;8.990;2023-04-22T04:49:40;69532.09;;;-145.07;100.00
6974;BME280;3527;52.376;8.990;2023-04-22T04:52:09;69532.09;;;-145.07;100.00
6974;BME280;3527;52.376;8.990;2023-04-22T04:54:37;69532.09;;;-145.07;100.00
6974;BME280;3527;52.376;8.990;2023-04-22T04:57:04;69532.09;;;-145.07;100.00
6974;BME280;3527;52.376;8.990;2023-04-22T04:59:31;69532.09;;;-145.07;100.00
6974;BME280;3527;52.376;8.990;2023-04-22T05:01:58;69532.09;;;-145.07;100.00
6974;BME280;3527;52.376;8.990;2023-04-22T05:04:24;69532.09;;;-145.07;100.00
6974;BME280;3527;52.376;8.990;2023-04-22T05:06:52;69532.09;;;-145.07;100.00
6974;BME280;3527;52.376;8.990;2023-04-22T05:09:19;69532.09;;;-145.07;100.00
6974;BME280;3527;52.376;8.990;2023-04-22T05:11:46;69532.09;;;-145.07;100.00
6974;BME280;3527;52.376;8.990;2023-04-22T05:14:12;69532.09;;;-145.07;100.00
6974;BME280;3527;52.376;8.990;2023-04-22T05:16:40;69532.09;;;-145.07;100.00
6974;BME280;3527;52.376;8.990;2023-04-22T05:19:07;69532.09;;;-145.07;100.00
6974;BME280;3527;52.376;8.990;2023-04-22T05:21:33;69532.09;;;-145.07;100.00
6974;BME280;3527;52.376;8.990;2023-04-22T05:24:00;69532.09;;;-145.07;100.00
6974;BME280;3527;52.376;8.990;2023-04-22T05:26:27;69532.09;;;-145.07;100.00
6974;BME280;3527;52.376;8.990;2023-04-22T05:28:54;69532.09;;;-145.07;100.00
6974;BME280;3527;52.376;8.990;2023-04-22T05:31:20;69532.09;;;-145.07;100.00
6974;BME280;3527;52.376;8.990;2023-04-22T05:33:47;69532.09;;;-145.07;100.00
6974;BME280;3527;52.376;8.990;2023-04-22T05:36:14;69532.09;;;-145.07;100.00
6974;BME280;3527;52.376;8.990;2023-04-22T05:38:41;69532.09;;;-145.07;100.00
6974;BME280;3527;52.376;8.990;2023-04-22T05:41:07;69532.09;;;-145.07;100.00
6974;BME280;3527;52.376;8.990;2023-04-22T05:43:34;69532.09;;;-145.07;100.00
6974;BME280;3527;52.376;8.990;2023-04-22T05:46:01;69532.09;;;-145.07;100.00
6974;BME280;3527;52.376;8.990;2023-04-22T05:48:28;69532.09;;;-145.07;100.00
6974;BME280;3527;52.376;8.990;2023-04-22T05:50:55;69532.09;;;-145.07;100.00
6974;BME280;3527;52.376;8.990;2023-04-22T05:53:21;69532.09;;;-145.07;100.00
6974;BME280;3527;52.376;8.990;2023-04-22T05:55:49;69532.09;;;-145.07;100.00
6974;BME280;3527;52.376;8.990;2023-04-22T05:58:16;69532.09;;;-145.07;100.00
6974;BME280;3527;52.376;8.990;2023-04-22T06:00:42;69532.09;;;-145.07;100.00
6974;BME280;3527;52.376;8.990;2023-04-22T06:03:09;69532.09;;;-145.07;100.00
6974;BME280;3527;52.376;8.990;2023-04-22T06:05:36;69532.09;;;-145.07;100.00
6974;BME280;3527;52.376;8.990;2023-04-22T06:08:03;69532.09;;;-145.07;100.00
6974;BME280;3527;52.376;8.990;2023-04-22T06:10:30;69532.09;;;-145.07;100.00
6974;BME280;3527;52.376;8.990;2023-04-22T06:12:56;69532.09;;;-145.07;100.00
6974;BME280;3527;52.376;8.990;2023-04-22T06:15:24;69532.09;;;-145.07;100.00
6974;BME280;3527;52.376;8.990;2023-04-22T06:17:51;69532.09;;;-145.07;100.00
6974;BME280;3527;52.376;8.990;2023-04-22T06:20:18;69532.09;;;-145.07;100.00
6974;BME280;3527;52.376;8.990;2023-04-22T06:22:44;69532.09;;;-145.07;100.00
6974;BME280;3527;52.376;8.990;2023-04-22T06:25:11;69532.09;;;-145.07;100.00
6974;BME280;3527;52.376;8.990;2023-04-22T06:27:38;69532.09;;;-145.07;100.00
6974;BME280;3527;52.376;8.990;2023-04-22T06:30:05;69532.09;;;-145.07;100.00
6974;BME280;3527;52.376;8.990;2023-04-22T06:32:32;69532.09;;;-145.07;100.00
6974;BME280;3527;52.376;8.990;2023-04-22T06:34:59;69532.09;;;-145.07;100.00
6974;BME280;3527;52.376;8.990;2023-04-22T06:37:26;69532.09;;;-145.07;100.00
6974;BME280;3527;52.376;8.990;2023-04-22T06:39:52;69532.09;;;-145.07;100.00
6974;BME280;3527;52.376;8.990;2023-04-22T06:42:19;69532.09;;;-145.07;100.00
6974;BME280;3527;52.376;8.990;2023-04-22T06:44:46;69532.09;;;-145.07;100.00
6974;BME280;3527;52.376;8.990;2023-04-22T06:47:13;69532.09;;;-145.07;100.00
6974;BME280;3527;52.376;8.990;2023-04-22T06:49:39;69532.09;;;-145.07;100.00
6974;BME280;3527;52.376;8.990;2023-04-22T06:52:07;69532.09;;;-145.07;100.00
6974;BME280;3527;52.376;8.990;2023-04-22T06:54:34;69532.09;;;-145.07;100.00
6974;BME280;3527;52.376;8.990;2023-04-22T06:57:00;69532.09;;;-145.07;100.00
6974;BME280;3527;52.376;8.990;2023-04-22T06:59:27;69532.09;;;-145.07;100.00
6974;BME280;3527;52.376;8.990;2023-04-22T07:01:54;69532.09;;;-145.07;100.00
6974;BME280;3527;52.376;8.990;2023-04-22T07:04:21;69532.09;;;-145.07;100.00
6974;BME280;3527;52.376;8.990;2023-04-22T07:06:47;69532.09;;;-145.07;100.00
6974;BME280;3527;52.376;8.990;2023-04-22T07:09:14;69532.09;;;-145.07;100.00
6974;BME280;3527;52.376;8.990;2023-04-22T07:11:41;69532.09;;;-145.07;100.00
6974;BME280;3527;52.376;8.990;2023-04-22T07:14:08;69532.09;;;-145.07;100.00
6974;BME280;3527;52.376;8.990;2023-04-22T07:16:35;69532.09;;;-145.07;100.00
6974;BME280;3527;52.376;8.990;2023-04-22T07:19:02;69532.09;;;-145.07;100.00
6974;BME280;3527;52.376;8.990;2023-04-22T07:21:30;69532.09;;;-145.07;100.00
6974;BME280;3527;52.376;8.990;2023-04-22T07:23:58;69532.09;;;-145.07;100.00
6974;BME280;3527;52.376;8.990;2023-04-22T07:26:25;69532.09;;;-145.07;100.00
6974;BME280;3527;52.376;8.990;2023-04-22T07:28:52;69532.09;;;-145.07;100.00
6974;BME280;3527;52.376;8.990;2023-04-22T07:31:19;69532.09;;;-145.07;100.00
6974;BME280;3527;52.376;8.990;2023-04-22T07:33:46;69532.09;;;-145.07;100.00
6974;BME280;3527;52.376;8.990;2023-04-22T07:36:12;69532.09;;;-145.07;100.00
6974;BME280;3527;52.376;8.990;2023-04-22T07:38:39;69532.09;;;-145.07;100.00
6974;BME280;3527;52.376;8.990;2023-04-22T07:41:06;69532.09;;;-145.07;100.00
6974;BME280;3527;52.376;8.990;2023-04-22T07:43:33;69532.09;;;-145.07;100.00
6974;BME280;3527;52.376;8.990;2023-04-22T07:45:59;69532.09;;;-145.07;100.00
6974;BME280;3527;52.376;8.990;2023-04-22T07:48:26;69532.09;;;-145.07;100.00
6974;BME280;3527;52.376;8.990;2023-04-22T07:50:53;69532.09;;;-145.07;100.00
6974;BME280;3527;52.376;8.990;2023-04-22T07:53:20;69532.09;;;-145.07;100.00
6974;BME280;3527;52.376;8.990;2023-04-22T07:55:47;69532.09;;;-145.07;100.00
6974;BME280;3527;52.376;8.990;2023-04-22T07:58:15;69532.09;;;-145.07;100.00
6974;BME280;3527;52.376;8.990;2023-04-22T08:00:42;69532.09;;;-145.07;100.00
6974;BME280;3527;52.376;8.990;2023-04-22T08:03:09;69532.09;;;-145.07;100.00
6974;BME280;3527;52.376;8.990;2023-04-22T08:05:36;69532.09;;;-145.07;100.00
6974;BME280;3527;52.376;8.990;2023-04-22T08:08:04;69532.09;;;-145.07;100.00
6974;BME280;3527;52.376;8.990;2023-04-22T08:10:31;69532.09;;;-145.07;100.00
6974;BME280;3527;52.376;8.990;2023-04-22T08:12:58;69532.09;;;-145.07;100.00
6974;BME280;3527;52.376;8.990;2023-04-22T08:15:24;69532.09;;;-145.07;100.00
6974;BME280;3527;52.376;8.990;2023-04-22T08:17:52;69532.09;;;-145.07;100.00
6974;BME280;3527;52.376;8.990;2023-04-22T08:20:18;69532.09;;;-145.07;100.00
6974;BME280;3527;52.376;8.990;2023-04-22T08:22:45;69532.09;;;-145.07;100.00
6974;BME280;3527;52.376;8.990;2023-04-22T08:25:13;69532.09;;;-145.07;100.00
6974;BME280;3527;52.376;8.990;2023-04-22T08:27:40;69532.09;;;-145.07;100.00
6974;BME280;3527;52.376;8.990;2023-04-22T08:30:07;69532.09;;;-145.07;100.00
6974;BME280;3527;52.376;8.990;2023-04-22T08:32:34;69532.09;;;-145.07;100.00
6974;BME280;3527;52.376;8.990;2023-04-22T08:35:01;69532.09;;;-145.07;100.00
6974;BME280;3527;52.376;8.990;2023-04-22T08:37:30;69532.09;;;-145.07;100.00
6974;BME280;3527;52.376;8.990;2023-04-22T08:39:57;69532.09;;;-145.07;100.00
6974;BME280;3527;52.376;8.990;2023-04-22T08:42:25;69532.09;;;-145.07;100.00
6974;BME280;3527;52.376;8.990;2023-04-22T08:44:53;69532.09;;;-145.07;100.00
6974;BME280;3527;52.376;8.990;2023-04-22T08:47:20;69532.09;;;-145.07;100.00
6974;BME280;3527;52.376;8.990;2023-04-22T08:49:49;69532.09;;;-145.07;100.00
6974;BME280;3527;52.376;8.990;2023-04-22T08:52:17;69532.09;;;-145.07;100.00
6974;BME280;3527;52.376;8.990;2023-04-22T08:54:43;69532.09;;;-145.07;100.00
6974;BME280;3527;52.376;8.990;2023-04-22T08:57:11;69532.09;;;-145.07;100.00
6974;BME280;3527;52.376;8.990;2023-04-22T08:59:40;69532.09;;;-145.07;100.00
6974;BME280;3527;52.376;8.990;2023-04-22T09:02:13;69532.09;;;-145.07;100.00
6974;BME280;3527;52.376;8.990;2023-04-22T09:04:43;69532.09;;;-145.07;100.00
6974;BME280;3527;52.376;8.990;2023-04-22T09:07:15;69532.09;;;-145.07;100.00
6974;BME280;3527;52.376;8.990;2023-04-22T09:09:47;69532.09;;;-145.07;100.00
6974;BME280;3527;52.376;8.990;2023-04-22T09:12:14;69532.09;;;-145.07;100.00
6974;BME280;3527;52.376;8.990;2023-04-22T09:14:43;69532.09;;;-145.07;100.00
6974;BME280;3527;52.376;8.990;2023-04-22T09:17:14;69532.09;;;-145.07;100.00
6974;BME280;3527;52.376;8.990;2023-04-22T09:19:41;69532.09;;;-145.07;100.00
6974;BME280;3527;52.376;8.990;2023-04-22T09:22:10;69532.09;;;-145.07;100.00
6974;BME280;3527;52.376;8.990;2023-04-22T09:24:47;69532.09;;;-145.07;100.00
6974;BME280;3527;52.376;8.990;2023-04-22T09:27:16;69532.09;;;-145.07;100.00
6974;BME280;3527;52.376;8.990;2023-04-22T09:29:50;69532.09;;;-145.07;100.00
6974;BME280;3527;52.376;8.990;2023-04-22T09:32:18;69532.09;;;-145.07;100.00
6974;BME280;3527;52.376;8.990;2023-04-22T09:34:54;69532.09;;;-145.07;100.00
6974;BME280;3527;52.376;8.990;2023-04-22T09:37:24;69532.09;;;-145.07;100.00
6974;BME280;3527;52.376;8.990;2023-04-22T09:40:01;69532.09;;;-145.07;100.00
6974;BME280;3527;52.376;8.990;2023-04-22T09:42:29;69532.09;;;-145.07;100.00
6974;BME280;3527;52.376;8.990;2023-04-22T09:44:57;69532.09;;;-145.07;100.00
6974;BME280;3527;52.376;8.990;2023-04-22T09:47:34;69532.09;;;-145.07;100.00
6974;BME280;3527;52.376;8.990;2023-04-22T09:50:03;69532.09;;;-145.07;100.00
6974;BME280;3527;52.376;8.990;2023-04-22T09:52:31;69532.09;;;-145.07;100.00
6974;BME280;3527;52.376;8.990;2023-04-22T09:54:58;69532.09;;;-145.07;100.00
6974;BME280;3527;52.376;8.990;2023-04-22T09:57:25;69532.09;;;-145.07;100.00
6974;BME280;3527;52.376;8.990;2023-04-22T09:59:53;69532.09;;;-145.07;100.00
6974;BME280;3527;52.376;8.990;2023-04-22T10:02:28;69532.09;;;-145.07;100.00
6974;BME280;3527;52.376;8.990;2023-04-22T10:04:55;69532.09;;;-145.07;100.00
6974;BME280;3527;52.376;8.990;2023-04-22T10:07:23;69532.09;;;-145.07;100.00
6974;BME280;3527;52.376;8.990;2023-04-22T10:09:56;69532.09;;;-145.07;100.00
6974;BME280;3527;52.376;8.990;2023-04-22T10:12:25;69532.09;;;-145.07;100.00
6974;BME280;3527;52.376;8.990;2023-04-22T10:15:04;69532.09;;;-145.07;100.00
6974;BME280;3527;52.376;8.990;2023-04-22T10:17:35;69532.09;;;-145.07;100.00
6974;BME280;3527;52.376;8.990;2023-04-22T10:20:06;69532.09;;;-145.07;100.00
6974;BME280;3527;52.376;8.990;2023-04-22T10:22:40;69532.09;;;-145.07;100.00
6974;BME280;3527;52.376;8.990;2023-04-22T10:25:24;69532.09;;;-145.07;100.00
6974;BME280;3527;52.376;8.990;2023-04-22T10:28:11;69532.09;;;-145.07;100.00
6974;BME280;3527;52.376;8.990;2023-04-22T10:30:39;69532.09;;;-145.07;100.00
6974;BME280;3527;52.376;8.990;2023-04-22T10:41:32;69532.09;;;-145.07;100.00
6974;BME280;3527;52.376;8.990;2023-04-22T10:44:04;69532.09;;;-145.07;100.00
6974;BME280;3527;52.376;8.990;2023-04-22T10:47:44;100170.47;;;24.27;49.03
6974;BME280;3527;52.376;8.990;2023-04-22T10:50:30;100160.50;;;24.32;48.14
6974;BME280;3527;52.376;8.990;2023-04-22T10:53:33;100143.63;;;24.01;48.06
6974;BME280;3527;52.376;8.990;2023-04-22T10:55:52;100125.88;;;23.97;48.02
6974;BME280;3527;52.376;8.990;2023-04-22T10:58:20;100138.34;;;24.09;48.42
6974;BME280;3527;52.376;8.990;2023-04-22T11:00:47;100102.03;;;23.76;47.05
6974;BME280;3527;52.376;8.990;2023-04-22T11:03:27;100091.06;;;23.93;46.61
6974;BME280;3527;52.376;8.990;2023-04-22T11:06:16;100099.06;;;24.13;46.63
6974;BME280;3527;52.376;8.990;2023-04-22T11:08:48;100120.72;;;24.61;46.51
6974;BME280;3527;52.376;8.990;2023-04-22T11:11:17;100086.34;;;24.56;45.22
6974;BME280;3527;52.376;8.990;2023-04-22T11:13:47;100080.88;;;24.01;45.89
6974;BME280;3527;52.376;8.990;2023-04-22T11:16:16;100108.72;;;24.81;45.52
6974;BME280;3527;52.376;8.990;2023-04-22T11:18:45;100072.75;;;24.51;44.29
6974;BME280;3527;52.376;8.990;2023-04-22T11:21:13;100065.84;;;24.43;44.98
6974;BME280;3527;52.376;8.990;2023-04-22T11:23:48;100061.75;;;24.25;45.05
6974;BME280;3527;52.376;8.990;2023-04-22T11:26:16;100048.94;;;24.54;44.18
6974;BME280;3527;52.376;8.990;2023-04-22T11:28:46;100028.56;;;24.46;43.64
6974;BME280;3527;52.376;8.990;2023-04-22T11:31:13;100051.50;;;24.52;44.49
6974;BME280;3527;52.376;8.990;2023-04-22T11:33:41;100063.28;;;24.45;44.61
6974;BME280;3527;52.376;8.990;2023-04-22T11:36:10;100055.88;;;24.38;44.61
6974;BME280;3527;52.376;8.990;2023-04-22T11:38:37;100026.00;;;24.15;43.91
6974;BME280;3527;52.376;8.990;2023-04-22T11:41:04;100031.91;;;24.45;43.57
6974;BME280;3527;52.376;8.990;2023-04-22T11:43:31;100052.19;;;24.38;44.60
6974;BME280;3527;52.376;8.990;2023-04-22T11:45:58;100080.41;;;24.92;45.06
6974;BME280;3527;52.376;8.990;2023-04-22T11:48:24;100030.84;;;24.57;44.12
6974;BME280;3527;52.376;8.990;2023-04-22T11:51:07;100027.38;;;25.01;43.05
6974;BME280;3527;52.376;8.990;2023-04-22T11:53:35;100017.94;;;24.85;42.75
6974;BME280;3527;52.376;8.990;2023-04-22T11:56:02;100036.38;;;24.84;43.88
6974;BME280;3527;52.376;8.990;2023-04-22T11:58:29;100056.78;;;25.31;43.80
6974;BME280;3527;52.376;8.990;2023-04-22T12:00:57;100025.63;;;25.03;43.26
6974;BME280;3527;52.376;8.990;2023-04-22T12:03:26;100009.00;;;24.54;44.11
6974;BME280;3527;52.376;8.990;2023-04-22T12:05:56;100026.22;;;24.83;43.91
6974;BME280;3527;52.376;8.990;2023-04-22T12:08:25;100028.66;;;24.52;44.46
6974;BME280;3527;52.376;8.990;2023-04-22T12:10:53;100032.97;;;24.95;43.92
6974;BME280;3527;52.376;8.990;2023-04-22T12:13:26;99990.75;;;24.75;43.23
6974;BME280;3527;52.376;8.990;2023-04-22T12:16:16;100029.19;;;24.65;44.72
6974;BME280;3527;52.376;8.990;2023-04-22T12:18:54;100024.75;;;24.64;44.75
6974;BME280;3527;52.376;8.990;2023-04-22T12:21:25;100063.88;;;24.96;46.08
6974;BME280;3527;52.376;8.990;2023-04-22T12:23:57;100050.69;;;25.23;44.69
6974;BME280;3527;52.376;8.990;2023-04-22T12:26:34;100037.28;;;25.58;44.66
6974;BME280;3527;52.376;8.990;2023-04-22T12:29:05;100037.81;;;25.72;43.74
6974;BME280;3527;52.376;8.990;2023-04-22T12:31:34;100029.84;;;25.76;43.81
6974;BME280;3527;52.376;8.990;2023-04-22T12:34:01;99997.75;;;25.42;43.24
6974;BME280;3527;52.376;8.990;2023-04-22T12:36:32;100015.13;;;25.53;43.78
6974;BME280;3527;52.376;8.990;2023-04-22T12:38:59;99999.34;;;25.87;42.50
6974;BME280;3527;52.376;8.990;2023-04-22T12:41:25;99983.66;;;25.39;42.87
6974;BME280;3527;52.376;8.990;2023-04-22T12:43:52;100038.00;;;25.83;44.26
6974;BME280;3527;52.376;8.990;2023-04-22T12:46:20;99988.81;;;25.49;43.10
6974;BME280;3527;52.376;8.990;2023-04-22T12:48:47;99987.13;;;25.43;42.80
6974;BME280;3527;52.376;8.990;2023-04-22T12:51:14;99963.06;;;25.05;42.46
6974;BME280;3527;52.376;8.990;2023-04-22T12:53:40;99972.72;;;25.08;42.61
6974;BME280;3527;52.376;8.990;2023-04-22T12:56:07;99963.06;;;25.20;42.81
6974;BME280;3527;52.376;8.990;2023-04-22T12:58:34;99987.81;;;25.52;42.88
6974;BME280;3527;52.376;8.990;2023-04-22T13:01:01;99996.41;;;25.67;42.83
6974;BME280;3527;52.376;8.990;2023-04-22T13:03:27;99988.91;;;25.55;42.95
6974;BME280;3527;52.376;8.990;2023-04-22T13:05:54;99972.75;;;25.22;42.90
6974;BME280;3527;52.376;8.990;2023-04-22T13:08:21;99974.19;;;25.18;43.12
6974;BME280;3527;52.376;8.990;2023-04-22T13:10:48;99970.28;;;24.91;43.57